Time;durP1;ratioP1;P1;durP2;ratioP2;P2;SDS_P1;SDS_P2;PMS_P1;PMS_P2;Temp;Humidity;BMP_temperature;BMP_pressure;BME280_temperature;BME280_humidity;BME280_pressure;Samples;Min_cycle;Max_cycle;Signal;HPM_P1;HPM_P2
2024/04/03 00:00:11;;;;;;;;;;;;;;;;;;107187;1251;62922;-79
2024/04/03 00:02:57;;;;;;;;;;;;;;;;;;107216;1249;62950;-81
2024/04/03 00:05:23;;;;;;;;;;;;;;;;;;107256;1250;62816;-81
2024/04/03 00:07:51;;;;;;;;;;;;;;;;;;107233;1250;62890;-80
2024/04/03 00:10:18;;;;;;;;;;;;;;;;;;107176;1253;62982;-80
2024/04/03 00:12:44;;;;;;;;;;;;;;;;;;107198;1250;63663;-80
2024/04/03 00:15:10;;;;;;;;;;;;;;;;;;107289;1249;62850;-81
2024/04/03 00:17:36;;;;;;;;;;;;;;;;;;107277;1249;62960;-80
2024/04/03 00:20:03;;;;;;;;;;;;;;;;;;108631;1249;62835;-80
2024/04/03 00:22:29;;;;;;;;;;;;;;;;;;109644;1250;60497;-81
2024/04/03 00:24:55;;;;;;;;;;;;;;;;;;109648;1250;60771;-80
2024/04/03 00:27:22;;;;;;;;;;;;;;;;;;109683;1249;60745;-81
2024/04/03 00:29:48;;;;;;;;;;;;;;;;;;107779;1250;62952;-81
2024/04/03 00:32:14;;;;;;;;;;;;;;;;;;107289;1253;62824;-81
2024/04/03 00:34:40;;;;;;;;;;;;;;;;;;107252;1250;62867;-81
2024/04/03 00:37:06;;;;;;;;;;;;;;;;;;107143;1249;62897;-80
2024/04/03 00:39:32;;;;;;;;;;;;;;;;;;107224;1254;62957;-81
2024/04/03 00:41:58;;;;;;;;;;;;;;;;;;108421;1250;62954;-81
2024/04/03 00:44:25;;;;;;;;;;;;;;;;;;107694;1249;62973;-81
2024/04/03 00:46:51;;;;;;;;;;;;;;;;;;107581;1249;62884;-81
2024/04/03 00:49:17;;;;;;;;;;;;;;;;;;107138;1250;63050;-81
2024/04/03 00:51:43;;;;;;;;;;;;;;;;;;107139;1250;60766;-81
2024/04/03 00:54:10;;;;;;;;;;;;;;;;;;107214;1249;62920;-81
2024/04/03 00:56:36;;;;;;;;;;;;;;;;;;107257;1250;62950;-81
2024/04/03 00:59:02;;;;;;;;;;;;;;;;;;107178;1249;62862;-81
2024/04/03 01:01:28;;;;;;;;;;;;;;;;;;107198;1250;62894;-82
2024/04/03 01:03:54;;;;;;;;;;;;;;;;;;107228;1254;62938;-81
2024/04/03 01:06:20;;;;;;;;;;;;;;;;;;107170;1250;62966;-81
2024/04/03 01:08:47;;;;;;;;;;;;;;;;;;107178;1253;62925;-81
2024/04/03 01:11:13;;;;;;;;;;;;;;;;;;107163;1250;62876;-82
2024/04/03 01:13:39;;;;;;;;;;;;;;;;;;107266;1251;61154;-81
2024/04/03 01:16:07;;;;;;;;;;;;;;;;;;107235;1250;62770;-82
2024/04/03 01:18:33;;;;;;;;;;;;;;;;;;107208;1253;62842;-80
2024/04/03 01:20:59;;;;;;;;;;;;;;;;;;107222;1249;62927;-81
2024/04/03 01:23:25;;;;;;;;;;;;;;;;;;107201;1254;62857;-82
2024/04/03 01:25:51;;;;;;;;;;;;;;;;;;107176;1250;62877;-80
2024/04/03 01:28:17;;;;;;;;;;;;;;;;;;107136;1250;63040;-82
2024/04/03 01:30:44;;;;;;;;;;;;;;;;;;107130;1250;62970;-80
2024/04/03 01:33:10;;;;;;;;;;;;;;;;;;107119;1251;62779;-82
2024/04/03 01:35:36;;;;;;;;;;;;;;;;;;107167;1250;62943;-81
2024/04/03 01:38:02;;;;;;;;;;;;;;;;;;107206;1250;62955;-81
2024/04/03 01:40:28;;;;;;;;;;;;;;;;;;107222;1250;62972;-81
2024/04/03 01:42:54;;;;;;;;;;;;;;;;;;107236;1253;62882;-80
2024/04/03 01:45:21;;;;;;;;;;;;;;;;;;107208;1249;62932;-81
2024/04/03 01:47:47;;;;;;;;;;;;;;;;;;107180;1250;62839;-80
2024/04/03 01:50:13;;;;;;;;;;;;;;;;;;107180;1251;62863;-81
2024/04/03 01:52:39;;;;;;;;;;;;;;;;;;107214;1251;62922;-81
2024/04/03 01:55:05;;;;;;;;;;;;;;;;;;107155;1252;62149;-80
2024/04/03 01:57:31;;;;;;;;;;;;;;;;;;107132;1250;62957;-82
2024/04/03 01:59:58;;;;;;;;;;;;;;;;;;107168;1251;61701;-81
2024/04/03 02:02:24;;;;;;;;;;;;;;;;;;107175;1249;64671;-81
2024/04/03 02:04:50;;;;;;;;;;;;;;;;;;107229;1249;62889;-81
2024/04/03 02:07:16;;;;;;;;;;;;;;;;;;107184;1254;62779;-82
2024/04/03 02:09:42;;;;;;;;;;;;;;;;;;107210;1249;62822;-81
2024/04/03 02:12:08;;;;;;;;;;;;;;;;;;107230;1250;62908;-80
2024/04/03 02:14:34;;;;;;;;;;;;;;;;;;107285;1254;62843;-81
2024/04/03 02:17:01;;;;;;;;;;;;;;;;;;107193;1253;62969;-81
2024/04/03 02:19:27;;;;;;;;;;;;;;;;;;107202;1250;62882;-82
2024/04/03 02:21:53;;;;;;;;;;;;;;;;;;107182;1250;62941;-81
2024/04/03 02:24:20;;;;;;;;;;;;;;;;;;107231;1253;62951;-81
2024/04/03 02:26:46;;;;;;;;;;;;;;;;;;107150;1250;62912;-81
2024/04/03 02:29:12;;;;;;;;;;;;;;;;;;107267;1250;62937;-81
2024/04/03 02:31:39;;;;;;;;;;;;;;;;;;107107;1249;62886;-82
2024/04/03 02:34:05;;;;;;;;;;;;;;;;;;107177;1250;62891;-81
2024/04/03 02:36:31;;;;;;;;;;;;;;;;;;107148;1250;62868;-82
2024/04/03 02:38:57;;;;;;;;;;;;;;;;;;107078;1250;62969;-82
2024/04/03 02:41:23;;;;;;;;;;;;;;;;;;107148;1250;62954;-80
2024/04/03 02:43:49;;;;;;;;;;;;;;;;;;107211;1250;62941;-81
2024/04/03 02:46:15;;;;;;;;;;;;;;;;;;107163;1250;62950;-80
2024/04/03 02:48:41;;;;;;;;;;;;;;;;;;107142;1250;62937;-81
2024/04/03 02:51:10;;;;;;;;;;;;;;;;;;107168;1251;62900;-82
2024/04/03 02:53:36;;;;;;;;;;;;;;;;;;107216;1250;62932;-81
2024/04/03 02:56:02;;;;;;;;;;;;;;;;;;107237;1250;62944;-81
2024/04/03 02:58:28;;;;;;;;;;;;;;;;;;107161;1254;62970;-80
2024/04/03 03:00:54;;;;;;;;;;;;;;;;;;107188;1250;62739;-81
2024/04/03 03:03:25;;;;;;;;;;;;;;;;;;108142;1250;62791;-82
2024/04/03 03:05:51;;;;;;;;;;;;;;;;;;109644;1250;60503;-80
2024/04/03 03:08:18;;;;;;;;;;;;;;;;;;109682;1249;60566;-80
2024/04/03 03:10:44;;;;;;;;;;;;;;;;;;109665;1250;60410;-80
2024/04/03 03:13:10;;;;;;;;;;;;;;;;;;108192;1250;62877;-81
2024/04/03 03:15:36;;;;;;;;;;;;;;;;;;107165;1249;62835;-80
2024/04/03 03:18:02;;;;;;;;;;;;;;;;;;107219;1250;63050;-81
2024/04/03 03:20:28;;;;;;;;;;;;;;;;;;107184;1249;62966;-80
2024/04/03 03:22:54;;;;;;;;;;;;;;;;;;107212;1253;62933;-81
2024/04/03 03:25:21;;;;;;;;;;;;;;;;;;107180;1250;60892;-82
2024/04/03 03:27:47;;;;;;;;;;;;;;;;;;107183;1253;62919;-81
2024/04/03 03:30:13;;;;;;;;;;;;;;;;;;107284;1250;62947;-81
2024/04/03 03:32:39;;;;;;;;;;;;;;;;;;107262;1250;62957;-82
2024/04/03 03:35:05;;;;;;;;;;;;;;;;;;107167;1250;62840;-82
2024/04/03 03:37:32;;;;;;;;;;;;;;;;;;107150;1253;62969;-81
2024/04/03 03:40:00;;;;;;;;;;;;;;;;;;107189;1250;62724;-82
2024/04/03 03:42:27;;;;;;;;;;;;;;;;;;107247;1250;62675;-81
2024/04/03 03:44:53;;;;;;;;;;;;;;;;;;107208;1250;62944;-81
2024/04/03 03:47:19;;;;;;;;;;;;;;;;;;107227;1250;63029;-80
2024/04/03 03:52:36;;;;;;;;;;;;;;;;;;107196;1250;62838;-80
2024/04/03 03:55:02;;;;;;;;;;;;;;;;;;107193;1250;63652;-80
2024/04/03 03:57:31;;;;;;;;;;;;;;;;;;107165;1250;62941;-82
2024/04/03 03:59:58;;;;;;;;;;;;;;;;;;107191;1250;62804;-81
2024/04/03 04:02:24;;;;;;;;;;;;;;;;;;107158;1250;62927;-80
2024/04/03 04:04:50;;;;;;;;;;;;;;;;;;107990;1250;62873;-82
2024/04/03 04:07:16;;;;;;;;;;;;;;;;;;109674;1250;60824;-81
2024/04/03 04:09:42;;;;;;;;;;;;;;;;;;109679;1249;60482;-82
2024/04/03 04:12:09;;;;;;;;;;;;;;;;;;109653;1249;60466;-81
2024/04/03 04:14:35;;;;;;;;;;;;;;;;;;109674;1250;60657;-81
2024/04/03 04:17:01;;;;;;;;;;;;;;;;;;109679;1249;60535;-82
2024/04/03 04:19:27;;;;;;;;;;;;;;;;;;108552;1249;62931;-82
2024/04/03 04:21:53;;;;;;;;;;;;;;;;;;107176;1253;62998;-81
2024/04/03 04:24:21;;;;;;;;;;;;;;;;;;107223;1254;62947;-81
2024/04/03 04:26:47;;;;;;;;;;;;;;;;;;107183;1253;62832;-80
2024/04/03 04:29:13;;;;;;;;;;;;;;;;;;107209;1250;62983;-82
2024/04/03 04:31:39;;;;;;;;;;;;;;;;;;107198;1250;62823;-80
2024/04/03 04:34:05;;;;;;;;;;;;;;;;;;107228;1250;62921;-80
2024/04/03 04:36:31;;;;;;;;;;;;;;;;;;107182;1250;62886;-82
2024/04/03 04:38:57;;;;;;;;;;;;;;;;;;107148;1253;62777;-79
2024/04/03 04:41:24;;;;;;;;;;;;;;;;;;107143;1250;62950;-81
2024/04/03 04:43:51;;;;;;;;;;;;;;;;;;107126;1250;62826;-81
2024/04/03 04:46:17;;;;;;;;;;;;;;;;;;107273;1253;62945;-81
2024/04/03 04:48:43;;;;;;;;;;;;;;;;;;107286;1250;62957;-81
2024/04/03 04:51:09;;;;;;;;;;;;;;;;;;107214;1254;60808;-82
2024/04/03 04:53:35;;;;;;;;;;;;;;;;;;107221;1251;62932;-83
2024/04/03 04:56:02;;;;;;;;;;;;;;;;;;107283;1250;62828;-82
2024/04/03 04:58:28;;;;;;;;;;;;;;;;;;107260;1250;62948;-80
2024/04/03 05:00:54;;;;;;;;;;;;;;;;;;107556;1250;62960;-81
2024/04/03 05:03:20;;;;;;;;;;;;;;;;;;107603;1250;62850;-81
2024/04/03 05:05:46;;;;;;;;;;;;;;;;;;107377;1250;62844;-82
2024/04/03 05:08:13;;;;;;;;;;;;;;;;;;107250;1250;62979;-80
2024/04/03 05:10:39;;;;;;;;;;;;;;;;;;107304;1254;62832;-81
2024/04/03 05:13:05;;;;;;;;;;;;;;;;;;107323;1252;62717;-80
2024/04/03 05:15:31;;;;;;;;;;;;;;;;;;107421;1251;62956;-83
2024/04/03 05:17:57;;;;;;;;;;;;;;;;;;107309;1250;63042;-80
2024/04/03 05:20:23;;;;;;;;;;;;;;;;;;107193;1250;62941;-80
2024/04/03 05:22:50;;;;;;;;;;;;;;;;;;107195;1250;62874;-81
2024/04/03 05:25:16;;;;;;;;;;;;;;;;;;107261;1254;61373;-80
2024/04/03 05:27:42;;;;;;;;;;;;;;;;;;107178;1254;62777;-80
2024/04/03 05:30:08;;;;;;;;;;;;;;;;;;107277;1251;62860;-81
2024/04/03 05:32:34;;;;;;;;;;;;;;;;;;107332;1250;62963;-81
2024/04/03 05:35:00;;;;;;;;;;;;;;;;;;107398;1249;62988;-80
2024/04/03 05:37:27;;;;;;;;;;;;;;;;;;107489;1248;63023;-80
2024/04/03 05:39:53;;;;;;;;;;;;;;;;;;107261;1253;62883;-80
2024/04/03 05:42:19;;;;;;;;;;;;;;;;;;107252;1249;62880;-81
2024/04/03 05:44:46;;;;;;;;;;;;;;;;;;107249;1250;62920;-79
2024/04/03 05:47:12;;;;;;;;;;;;;;;;;;107178;1250;62992;-80
2024/04/03 05:49:38;;;;;;;;;;;;;;;;;;107142;1250;63756;-81
2024/04/03 05:52:04;;;;;;;;;;;;;;;;;;107191;1249;60994;-79
2024/04/03 05:54:30;;;;;;;;;;;;;;;;;;107184;1250;62778;-80
2024/04/03 05:56:56;;;;;;;;;;;;;;;;;;107213;1249;62899;-80
2024/04/03 05:59:23;;;;;;;;;;;;;;;;;;107272;1253;62467;-80
2024/04/03 06:01:49;;;;;;;;;;;;;;;;;;107307;1253;62957;-79
2024/04/03 06:04:16;;;;;;;;;;;;;;;;;;107457;1250;62822;-79
2024/04/03 06:06:42;;;;;;;;;;;;;;;;;;107385;1256;62876;-81
2024/04/03 06:09:08;;;;;;;;;;;;;;;;;;107316;1254;62972;-79
2024/04/03 06:11:34;;;;;;;;;;;;;;;;;;107118;1249;198532;-80
2024/04/03 06:14:00;;;;;;;;;;;;;;;;;;107382;1253;62842;-81
2024/04/03 06:16:26;;;;;;;;;;;;;;;;;;107296;1250;62876;-81
2024/04/03 06:18:54;;;;;;;;;;;;;;;;;;107268;1254;63537;-79
2024/04/03 06:21:21;;;;;;;;;;;;;;;;;;107325;1250;62875;-80
2024/04/03 06:23:47;;;;;;;;;;;;;;;;;;107383;1250;62829;-80
2024/04/03 06:26:13;;;;;;;;;;;;;;;;;;107580;1254;63034;-80
2024/04/03 06:28:39;;;;;;;;;;;;;;;;;;107892;1250;62877;-81
2024/04/03 06:31:05;;;;;;;;;;;;;;;;;;107796;1250;62842;-81
2024/04/03 06:33:31;;;;;;;;;;;;;;;;;;107640;1250;62871;-80
2024/04/03 06:35:57;;;;;;;;;;;;;;;;;;107481;1255;62921;-80
2024/04/03 06:38:24;;;;;;;;;;;;;;;;;;107676;1250;62751;-79
2024/04/03 06:40:50;;;;;;;;;;;;;;;;;;107760;1250;62883;-81
2024/04/03 06:43:16;;;;;;;;;;;;;;;;;;107189;1251;62841;-80
2024/04/03 06:45:42;;;;;;;;;;;;;;;;;;107257;1256;63033;-82
2024/04/03 06:48:08;;;;;;;;;;;;;;;;;;107216;1254;62633;-82
2024/04/03 06:50:34;;;;;;;;;;;;;;;;;;107138;1250;62938;-80
2024/04/03 06:53:01;;;;;;;;;;;;;;;;;;107119;1250;62960;-80
2024/04/03 06:55:27;;;;;;;;;;;;;;;;;;107139;1249;62813;-81
2024/04/03 06:57:54;;;;;;;;;;;;;;;;;;107140;1254;62906;-79
2024/04/03 07:00:20;;;;;;;;;;;;;;;;;;107129;1251;62967;-80
2024/04/03 07:02:48;;;;;;;;;;;;;;;;;;107096;1255;62842;-81
2024/04/03 07:05:14;;;;;;;;;;;;;;;;;;107353;1254;62973;-80
2024/04/03 07:07:40;;;;;;;;;;;;;;;;;;107127;1255;62866;-81
2024/04/03 07:10:08;;;;;;;;;;;;;;;;;;107082;1251;62879;-81
2024/04/03 07:12:34;;;;;;;;;;;;;;;;;;107061;1256;62934;-81
2024/04/03 07:15:00;;;;;;;;;;;;;;;;;;107148;1250;62899;-81
2024/04/03 07:17:26;;;;;;;;;;;;;;;;;;107308;1251;62823;-81
2024/04/03 07:19:53;;;;;;;;;;;;;;;;;;107065;1257;62880;-82
2024/04/03 07:22:19;;;;;;;;;;;;;;;;;;107067;1254;61040;-82
2024/04/03 07:24:47;;;;;;;;;;;;;;;;;;107185;1253;62847;-81
2024/04/03 07:27:13;;;;;;;;;;;;;;;;;;107202;1250;62862;-82
2024/04/03 07:29:40;;;;;;;;;;;;;;;;;;107335;1255;62927;-82
2024/04/03 07:32:06;;;;;;;;;;;;;;;;;;107129;1251;62745;-81
2024/04/03 07:34:32;;;;;;;;;;;;;;;;;;107181;1253;63026;-81
2024/04/03 07:36:58;;;;;;;;;;;;;;;;;;107208;1253;62755;-80
2024/04/03 07:39:25;;;;;;;;;;;;;;;;;;107200;1253;62939;-82
2024/04/03 07:41:51;;;;;;;;;;;;;;;;;;107019;1255;60840;-81
2024/04/03 07:44:21;;;;;;;;;;;;;;;;;;107078;1255;62909;-81
2024/04/03 07:46:49;;;;;;;;;;;;;;;;;;107058;1252;62893;-81
2024/04/03 07:49:15;;;;;;;;;;;;;;;;;;107181;1254;62714;-81
2024/04/03 07:51:41;;;;;;;;;;;;;;;;;;107136;1250;62815;-81
2024/04/03 07:54:07;;;;;;;;;;;;;;;;;;107018;1253;62920;-81
2024/04/03 07:56:34;;;;;;;;;;;;;;;;;;107044;1250;62896;-81
2024/04/03 07:59:00;;;;;;;;;;;;;;;;;;107357;1250;62772;-82
2024/04/03 08:01:26;;;;;;;;;;;;;;;;;;107236;1255;62934;-81
2024/04/03 08:03:52;;;;;;;;;;;;;;;;;;107148;1250;62910;-81
2024/04/03 08:06:19;;;;;;;;;;;;;;;;;;107035;1250;63763;-82
2024/04/03 08:08:45;;;;;;;;;;;;;;;;;;107217;1250;62934;-82
2024/04/03 08:11:11;;;;;;;;;;;;;;;;;;107274;1250;62893;-81
2024/04/03 08:13:37;;;;;;;;;;;;;;;;;;107391;1250;62954;-80
2024/04/03 08:16:03;;;;;;;;;;;;;;;;;;107361;1250;62936;-80
2024/04/03 08:18:29;;;;;;;;;;;;;;;;;;107445;1254;63656;-80
2024/04/03 08:20:56;;;;;;;;;;;;;;;;;;107367;1250;62861;-81
2024/04/03 08:23:22;;;;;;;;;;;;;;;;;;107364;1253;63008;-80
2024/04/03 08:25:48;;;;;;;;;;;;;;;;;;107429;1250;62741;-80
2024/04/03 08:28:14;;;;;;;;;;;;;;;;;;107159;1251;62778;-81
2024/04/03 08:30:40;;;;;;;;;;;;;;;;;;107257;1250;62935;-81
2024/04/03 08:33:10;;;;;;;;;;;;;;;;;;107233;1250;60772;-81
2024/04/03 08:35:36;;;;;;;;;;;;;;;;;;107094;1250;63178;-81
2024/04/03 08:38:02;;;;;;;;;;;;;;;;;;107233;1250;62941;-81
2024/04/03 08:40:29;;;;;;;;;;;;;;;;;;107294;1250;62940;-82
2024/04/03 08:42:55;;;;;;;;;;;;;;;;;;107236;1251;62816;-81
2024/04/03 08:45:21;;;;;;;;;;;;;;;;;;107296;1250;62870;-81
2024/04/03 08:47:47;;;;;;;;;;;;;;;;;;107237;1250;62920;-81
2024/04/03 08:50:13;;;;;;;;;;;;;;;;;;107176;1250;62964;-81
2024/04/03 08:52:40;;;;;;;;;;;;;;;;;;107190;1249;62881;-80
2024/04/03 08:55:06;;;;;;;;;;;;;;;;;;107268;1256;63238;-81
2024/04/03 08:57:32;;;;;;;;;;;;;;;;;;107246;1250;63171;-80
2024/04/03 08:59:59;;;;;;;;;;;;;;;;;;107219;1250;62896;-81
2024/04/03 09:02:25;;;;;;;;;;;;;;;;;;107302;1253;62947;-81
2024/04/03 09:04:51;;;;;;;;;;;;;;;;;;107181;1250;62846;-82
2024/04/03 09:07:17;;;;;;;;;;;;;;;;;;107210;1250;62889;-81
2024/04/03 09:09:43;;;;;;;;;;;;;;;;;;107310;1250;62949;-82
2024/04/03 09:12:10;;;;;;;;;;;;;;;;;;107108;1250;62846;-81
2024/04/03 09:14:36;;;;;;;;;;;;;;;;;;107160;1253;63009;-80
2024/04/03 09:17:02;;;;;;;;;;;;;;;;;;107241;1250;62824;-81
2024/04/03 09:19:28;;;;;;;;;;;;;;;;;;107205;1253;62864;-81
2024/04/03 09:21:55;;;;;;;;;;;;;;;;;;107254;1252;62909;-81
2024/04/03 09:24:21;;;;;;;;;;;;;;;;;;107359;1253;63908;-82
2024/04/03 09:27:02;;;;;;;;;;;;;;;;;;107295;1250;60949;-81
2024/04/03 09:29:29;;;;;;;;;;;;;;;;;;107448;1253;62816;-81
2024/04/03 09:31:56;;;;;;;;;;;;;;;;;;107204;1253;63516;-80
2024/04/03 09:34:25;;;;;;;;;;;;;;;;;;107188;1250;62951;-82
2024/04/03 09:36:51;;;;;;;;;;;;;;;;;;107191;1250;63037;-81
2024/04/03 09:39:17;;;;;;;;;;;;;;;;;;108141;1250;60897;-80
2024/04/03 09:41:43;;;;;;;;;;;;;;;;;;107125;1254;63575;-80
2024/04/03 09:44:10;;;;;;;;;;;;;;;;;;107164;1251;62561;-81
2024/04/03 09:46:36;;;;;;;;;;;;;;;;;;107193;1250;62805;-81
2024/04/03 09:49:03;;;;;;;;;;;;;;;;;;107119;1250;63040;-81
2024/04/03 09:51:29;;;;;;;;;;;;;;;;;;107127;1250;62963;-81
2024/04/03 09:53:56;;;;;;;;;;;;;;;;;;107168;1251;62716;-80
2024/04/03 09:56:22;;;;;;;;;;;;;;;;;;107163;1253;62837;-82
2024/04/03 09:58:48;;;;;;;;;;;;;;;;;;107386;1256;63006;-80
2024/04/03 10:01:14;;;;;;;;;;;;;;;;;;107016;1254;62885;-80
2024/04/03 10:03:41;;;;;;;;;;;;;;;;;;106961;1258;62932;-80
2024/04/03 10:06:11;;;;;;;;;;;;;;;;;;106981;1255;62929;-80
2024/04/03 10:08:37;;;;;;;;;;;;;;;;;;107163;1253;64483;-82
2024/04/03 10:11:03;;;;;;;;;;;;;;;;;;107054;1254;62952;-80
2024/04/03 10:13:30;;;;;;;;;;;;;;;;;;107033;1255;62831;-82
2024/04/03 10:15:56;;;;;;;;;;;;;;;;;;107061;1251;62877;-80
2024/04/03 10:18:22;;;;;;;;;;;;;;;;;;107207;1253;62819;-81
2024/04/03 10:20:48;;;;;;;;;;;;;;;;;;107089;1253;62818;-81
2024/04/03 10:23:14;;;;;;;;;;;;;;;;;;107140;1254;62846;-81
2024/04/03 10:25:41;;;;;;;;;;;;;;;;;;106954;1253;62846;-81
2024/04/03 10:28:07;;;;;;;;;;;;;;;;;;107196;1255;62844;-81
2024/04/03 10:30:33;;;;;;;;;;;;;;;;;;107381;1253;63000;-80
2024/04/03 10:33:00;;;;;;;;;;;;;;;;;;107323;1255;62899;-81
2024/04/03 10:35:29;;;;;;;;;;;;;;;;;;107289;1253;62839;-80
2024/04/03 10:37:57;;;;;;;;;;;;;;;;;;107418;1256;62838;-81
2024/04/03 10:40:24;;;;;;;;;;;;;;;;;;107712;1255;62793;-80
2024/04/03 10:42:50;;;;;;;;;;;;;;;;;;107652;1255;63384;-81
2024/04/03 10:45:16;;;;;;;;;;;;;;;;;;107651;1254;62957;-81
2024/04/03 10:47:43;;;;;;;;;;;;;;;;;;107507;1255;62990;-80
2024/04/03 10:50:10;;;;;;;;;;;;;;;;;;107609;1251;62924;-82
2024/04/03 10:52:36;;;;;;;;;;;;;;;;;;107347;1257;62854;-80
2024/04/03 10:55:02;;;;;;;;;;;;;;;;;;107767;1254;60777;-81
2024/04/03 10:57:28;;;;;;;;;;;;;;;;;;107672;1254;62815;-80
2024/04/03 10:59:54;;;;;;;;;;;;;;;;;;107609;1250;62975;-80
2024/04/03 11:02:20;;;;;;;;;;;;;;;;;;107533;1251;62951;-80
2024/04/03 11:04:47;;;;;;;;;;;;;;;;;;107689;1253;62837;-82
2024/04/03 11:07:13;;;;;;;;;;;;;;;;;;109654;1251;60606;-82
2024/04/03 11:09:40;;;;;;;;;;;;;;;;;;109671;1253;60707;-81
2024/04/03 11:12:06;;;;;;;;;;;;;;;;;;109688;1251;60522;-81
2024/04/03 11:14:32;;;;;;;;;;;;;;;;;;109587;1254;60495;-81
2024/04/03 11:16:58;;;;;;;;;;;;;;;;;;109664;1249;60513;-80
2024/04/03 11:19:25;;;;;;;;;;;;;;;;;;109663;1253;60429;-80
2024/04/03 11:21:51;;;;;;;;;;;;;;;;;;109717;1252;60762;-81
2024/04/03 11:24:17;;;;;;;;;;;;;;;;;;109664;1253;60602;-81
2024/04/03 11:26:43;;;;;;;;;;;;;;;;;;109235;1253;62793;-81
2024/04/03 11:29:09;;;;;;;;;;;;;;;;;;107482;1254;61668;-81
2024/04/03 11:31:36;;;;;;;;;;;;;;;;;;107370;1254;60747;-81
2024/04/03 11:34:02;;;;;;;;;;;;;;;;;;107354;1253;63992;-80
2024/04/03 11:36:29;;;;;;;;;;;;;;;;;;107381;1253;62951;-81
2024/04/03 11:38:55;;;;;;;;;;;;;;;;;;107570;1254;62903;-81
2024/04/03 11:41:21;;;;;;;;;;;;;;;;;;107468;1254;62834;-81
2024/04/03 11:43:48;;;;;;;;;;;;;;;;;;107452;1252;61126;-80
2024/04/03 11:46:14;;;;;;;;;;;;;;;;;;107369;1254;62743;-81
2024/04/03 11:48:41;;;;;;;;;;;;;;;;;;107509;1254;63049;-81
2024/04/03 11:51:07;;;;;;;;;;;;;;;;;;107440;1249;63007;-80
2024/04/03 11:53:33;;;;;;;;;;;;;;;;;;107351;1263;62947;-79
2024/04/03 11:55:59;;;;;;;;;;;;;;;;;;107484;1251;63027;-80
2024/04/03 11:58:26;;;;;;;;;;;;;;;;;;107514;1249;62935;-81
2024/04/03 12:00:52;;;;;;;;;;;;;;;;;;107558;1251;62851;-81
2024/04/03 12:03:18;;;;;;;;;;;;;;;;;;107612;1254;62815;-80
2024/04/03 12:05:44;;;;;;;;;;;;;;;;;;107412;1257;62862;-80
2024/04/03 12:08:10;;;;;;;;;;;;;;;;;;107491;1251;62979;-81
2024/04/03 12:10:37;;;;;;;;;;;;;;;;;;107470;1250;62853;-81
2024/04/03 12:13:07;;;;;;;;;;;;;;;;;;107509;1251;62857;-80
2024/04/03 12:15:33;;;;;;;;;;;;;;;;;;107357;1251;63677;-80
2024/04/03 12:17:59;;;;;;;;;;;;;;;;;;107491;1256;62893;-80
2024/04/03 12:20:30;;;;;;;;;;;;;;;;;;107520;1251;62949;-81
2024/04/03 12:22:56;;;;;;;;;;;;;;;;;;107447;1251;62835;-80
2024/04/03 12:25:23;;;;;;;;;;;;;;;;;;107529;1253;62441;-81
2024/04/03 12:27:49;;;;;;;;;;;;;;;;;;107634;1253;62893;-80
2024/04/03 12:30:15;;;;;;;;;;;;;;;;;;107454;1253;62771;-80
2024/04/03 12:32:41;;;;;;;;;;;;;;;;;;107399;1253;62816;-80
2024/04/03 12:35:08;;;;;;;;;;;;;;;;;;107163;1253;62979;-81
2024/04/03 12:37:34;;;;;;;;;;;;;;;;;;107523;1251;64794;-80
2024/04/03 12:40:00;;;;;;;;;;;;;;;;;;107656;1248;62943;-80
2024/04/03 12:42:27;;;;;;;;;;;;;;;;;;107357;1253;63112;-79
2024/04/03 12:44:53;;;;;;;;;;;;;;;;;;107361;1253;62867;-81
2024/04/03 12:47:20;;;;;;;;;;;;;;;;;;107460;1253;63599;-81
2024/04/03 12:49:46;;;;;;;;;;;;;;;;;;107492;1253;62851;-80
2024/04/03 12:52:12;;;;;;;;;;;;;;;;;;107382;1253;62739;-79
2024/04/03 12:54:38;;;;;;;;;;;;;;;;;;107400;1251;62950;-81
2024/04/03 12:57:05;;;;;;;;;;;;;;;;;;107332;1251;62942;-80
2024/04/03 12:59:31;;;;;;;;;;;;;;;;;;107474;1254;62684;-81
2024/04/03 13:01:57;;;;;;;;;;;;;;;;;;107324;1255;62914;-80
2024/04/03 13:04:23;;;;;;;;;;;;;;;;;;107507;1251;62992;-79
2024/04/03 13:06:50;;;;;;;;;;;;;;;;;;109650;1250;60499;-81
2024/04/03 13:09:16;;;;;;;;;;;;;;;;;;109626;1250;60653;-81
2024/04/03 13:11:43;;;;;;;;;;;;;;;;;;109650;1251;60829;-81
2024/04/03 13:14:09;;;;;;;;;;;;;;;;;;109596;1253;60551;-80
2024/04/03 13:16:35;;;;;;;;;;;;;;;;;;109623;1251;60468;-80
2024/04/03 13:19:01;;;;;;;;;;;;;;;;;;109566;1250;60740;-80
2024/04/03 13:21:27;;;;;;;;;;;;;;;;;;109684;1251;60648;-80
2024/04/03 13:23:54;;;;;;;;;;;;;;;;;;109620;1250;60689;-80
2024/04/03 13:26:20;;;;;;;;;;;;;;;;;;109621;1250;60487;-80
2024/04/03 13:28:46;;;;;;;;;;;;;;;;;;109572;1250;60434;-80
2024/04/03 13:31:12;;;;;;;;;;;;;;;;;;109598;1251;60624;-81
2024/04/03 13:33:38;;;;;;;;;;;;;;;;;;109654;1250;60710;-80
2024/04/03 13:36:04;;;;;;;;;;;;;;;;;;109652;1251;60798;-80
2024/04/03 13:38:32;;;;;;;;;;;;;;;;;;109612;1249;60659;-80
2024/04/03 13:40:58;;;;;;;;;;;;;;;;;;109596;1251;60501;-80
2024/04/03 13:43:24;;;;;;;;;;;;;;;;;;108044;1251;62837;-81
2024/04/03 13:45:50;;;;;;;;;;;;;;;;;;107515;1253;62876;-80
2024/04/03 13:48:16;;;;;;;;;;;;;;;;;;109132;1251;60901;-80
2024/04/03 13:50:42;;;;;;;;;;;;;;;;;;109712;1250;62302;-81
2024/04/03 13:53:09;;;;;;;;;;;;;;;;;;109653;1251;60635;-81
2024/04/03 13:55:35;;;;;;;;;;;;;;;;;;109574;1250;60763;-81
2024/04/03 13:58:02;;;;;;;;;;;;;;;;;;109652;1249;60759;-80
2024/04/03 14:00:30;;;;;;;;;;;;;;;;;;109703;1251;61261;-80
2024/04/03 14:02:57;;;;;;;;;;;;;;;;;;109686;1251;63008;-81
2024/04/03 14:05:23;;;;;;;;;;;;;;;;;;109498;1249;60757;-81
2024/04/03 14:07:50;;;;;;;;;;;;;;;;;;109633;1250;60783;-80
2024/04/03 14:10:16;;;;;;;;;;;;;;;;;;109531;1250;60807;-80
2024/04/03 14:12:42;;;;;;;;;;;;;;;;;;109489;1251;60464;-80
2024/04/03 14:15:08;;;;;;;;;;;;;;;;;;109526;1251;60715;-80
2024/04/03 14:17:35;;;;;;;;;;;;;;;;;;109547;1249;60741;-80
2024/04/03 14:20:01;;;;;;;;;;;;;;;;;;109679;1250;60441;-80
2024/04/03 14:22:27;;;;;;;;;;;;;;;;;;109696;1251;60506;-80
2024/04/03 14:24:54;;;;;;;;;;;;;;;;;;109677;1251;60970;-80
2024/04/03 14:27:22;;;;;;;;;;;;;;;;;;109621;1251;60720;-80
2024/04/03 14:29:48;;;;;;;;;;;;;;;;;;108831;1251;62864;-80
2024/04/03 14:32:14;;;;;;;;;;;;;;;;;;107489;1254;63860;-80
2024/04/03 14:34:40;;;;;;;;;;;;;;;;;;107465;1254;63017;-80
2024/04/03 14:37:08;;;;;;;;;;;;;;;;;;107424;1250;62963;-81
2024/04/03 14:39:34;;;;;;;;;;;;;;;;;;107527;1251;62705;-81
2024/04/03 14:42:01;;;;;;;;;;;;;;;;;;107609;1254;62861;-80
2024/04/03 14:44:27;;;;;;;;;;;;;;;;;;107857;1251;62824;-80
2024/04/03 14:46:53;;;;;;;;;;;;;;;;;;108025;1253;61533;-80
2024/04/03 14:49:20;;;;;;;;;;;;;;;;;;108795;1250;61582;-80
2024/04/03 14:51:46;;;;;;;;;;;;;;;;;;108344;1250;62771;-81
2024/04/03 14:54:13;;;;;;;;;;;;;;;;;;108110;1250;62793;-80
2024/04/03 14:56:39;;;;;;;;;;;;;;;;;;107878;1251;62862;-81
2024/04/03 14:59:05;;;;;;;;;;;;;;;;;;108821;1251;62721;-81
2024/04/03 15:01:31;;;;;;;;;;;;;;;;;;108928;1251;60674;-81
2024/04/03 15:03:57;;;;;;;;;;;;;;;;;;108407;1251;60461;-81
2024/04/03 15:06:24;;;;;;;;;;;;;;;;;;108424;1251;61729;-81
2024/04/03 15:08:51;;;;;;;;;;;;;;;;;;108512;1251;62962;-81
2024/04/03 15:11:19;;;;;;;;;;;;;;;;;;107424;1251;62954;-80
2024/04/03 15:13:45;;;;;;;;;;;;;;;;;;107273;1254;62775;-81
2024/04/03 15:16:11;;;;;;;;;;;;;;;;;;107157;1251;63289;-80
2024/04/03 15:18:38;;;;;;;;;;;;;;;;;;107245;1251;62855;-80
2024/04/03 15:21:04;;;;;;;;;;;;;;;;;;107112;1251;62899;-81
2024/04/03 15:23:30;;;;;;;;;;;;;;;;;;107120;1251;62896;-81
2024/04/03 15:25:57;;;;;;;;;;;;;;;;;;107118;1250;62892;-80
2024/04/03 15:28:23;;;;;;;;;;;;;;;;;;107170;1251;62893;-80
2024/04/03 15:30:49;;;;;;;;;;;;;;;;;;107135;1254;63030;-80
2024/04/03 15:33:16;;;;;;;;;;;;;;;;;;107156;1250;61061;-81
2024/04/03 15:35:42;;;;;;;;;;;;;;;;;;107109;1251;64975;-80
2024/04/03 15:38:08;;;;;;;;;;;;;;;;;;107150;1251;62879;-81
2024/04/03 15:40:34;;;;;;;;;;;;;;;;;;107074;1251;62963;-81
2024/04/03 15:43:01;;;;;;;;;;;;;;;;;;107139;1251;62836;-80
2024/04/03 15:45:27;;;;;;;;;;;;;;;;;;107062;1254;62964;-81
2024/04/03 15:47:53;;;;;;;;;;;;;;;;;;107083;1254;62945;-81
2024/04/03 15:50:20;;;;;;;;;;;;;;;;;;107080;1251;62950;-80
2024/04/03 15:52:47;;;;;;;;;;;;;;;;;;107229;1251;62934;-81
2024/04/03 15:55:13;;;;;;;;;;;;;;;;;;107090;1250;62808;-80
2024/04/03 15:57:40;;;;;;;;;;;;;;;;;;107141;1251;62805;-81
2024/04/03 16:00:10;;;;;;;;;;;;;;;;;;107200;1251;62864;-80
2024/04/03 16:02:36;;;;;;;;;;;;;;;;;;107241;1251;62835;-79
2024/04/03 16:05:03;;;;;;;;;;;;;;;;;;107170;1253;62202;-81
2024/04/03 16:07:29;;;;;;;;;;;;;;;;;;107214;1254;62937;-80
2024/04/03 16:09:55;;;;;;;;;;;;;;;;;;107278;1250;62948;-81
2024/04/03 16:12:21;;;;;;;;;;;;;;;;;;107606;1253;61163;-80
2024/04/03 16:14:47;;;;;;;;;;;;;;;;;;107788;1249;62870;-80
2024/04/03 16:17:14;;;;;;;;;;;;;;;;;;107319;1250;63042;-79
2024/04/03 16:19:40;;;;;;;;;;;;;;;;;;107275;1251;62845;-80
2024/04/03 16:22:07;;;;;;;;;;;;;;;;;;107212;1254;62947;-80
2024/04/03 16:24:33;;;;;;;;;;;;;;;;;;107862;1250;60885;-81